This is the latest recevied weather packets stored in our database for station/object W3BRL. If no packets are shown the sender has not sent any weather packets the latest 1 day(s).
| Time | Temp. | Humidity | Pressure | Rain* | Wind** | Luminosity | Snow |
|---|---|---|---|---|---|---|---|
| 1777997027 | 23.33° C | 42% | 1006.1 hPa | 0 mm | 9.39 m/s, 172° | 429 W/m² | - |
| 1777996723 | 23.33° C | 42% | 1006.3 hPa | 0 mm | 4.02 m/s, 236° | 972 W/m² | - |
| 1777996419 | 23.33° C | 41% | 1006.1 hPa | 0 mm | 5.81 m/s, 229° | 335 W/m² | - |
| 1777996116 | 23.33° C | 42% | 1006.2 hPa | 0 mm | 4.02 m/s, 241° | 742 W/m² | - |
| 1777995812 | 22.78° C | 43% | 1006.1 hPa | 0 mm | 7.15 m/s, 199° | 838 W/m² | - |
| 1777995508 | 23.33° C | 42% | 1006.2 hPa | 0 mm | 7.15 m/s, 205° | 755 W/m² | - |
| 1777995205 | 22.78° C | 43% | 1006.1 hPa | 0 mm | 9.39 m/s, 218° | 765 W/m² | - |
| 1777994902 | 22.22° C | 44% | 1006.3 hPa | 0 mm | 7.15 m/s, 207° | 753 W/m² | - |
| 1777994599 | 22.22° C | 45% | 1006.1 hPa | 0 mm | 6.71 m/s, 248° | 810 W/m² | - |
| 1777994294 | 22.22° C | 44% | 1006.3 hPa | 0 mm | 5.81 m/s, 246° | 486 W/m² | - |
| 1777993991 | 22.22° C | 44% | 1006.3 hPa | 0 mm | 4.02 m/s, 207° | 461 W/m² | - |
| 1777993688 | 22.22° C | 44% | 1006.2 hPa | 0 mm | 6.71 m/s, 88° | 827 W/m² | - |
| 1777993385 | 21.67° C | 45% | 1006.4 hPa | 0 mm | 7.6 m/s, 243° | 520 W/m² | - |
| 1777993085 | 21.67° C | 46% | 1006.4 hPa | 0 mm | 6.71 m/s, 222° | 401 W/m² | - |
| 1777992784 | 21.67° C | 45% | 1006.4 hPa | 0 mm | 5.36 m/s, 241° | 595 W/m² | - |
| 1777992481 | 21.67° C | 45% | 1006.7 hPa | 0 mm | 4.47 m/s, 211° | 323 W/m² | - |
| 1777992179 | 21.67° C | 46% | 1006.6 hPa | 0 mm | 8.05 m/s, 243° | 426 W/m² | - |
| 1777991875 | 21.67° C | 45% | 1006.6 hPa | 0 mm | 7.15 m/s, 208° | 343 W/m² | - |
| 1777991573 | 21.67° C | 45% | 1006.5 hPa | 0 mm | 6.26 m/s, 184° | 627 W/m² | - |
| 1777991270 | 21.11° C | 48% | 1006.6 hPa | 0 mm | 3.13 m/s, 215° | 594 W/m² | - |
| 1777990967 | 21.11° C | 48% | 1006.5 hPa | 0 mm | 2.68 m/s, 238° | 519 W/m² | - |
| 1777990665 | 20.56° C | 48% | 1006.8 hPa | 0 mm | 4.02 m/s, 203° | 614 W/m² | - |
| 1777990362 | 20.56° C | 48% | 1006.7 hPa | 0 mm | 6.71 m/s, 218° | 404 W/m² | - |
| 1777990058 | 20.56° C | 49% | 1006.8 hPa | 0 mm | 4.02 m/s, 205° | 434 W/m² | - |
| 1777989755 | 20.56° C | 48% | 1006.7 hPa | 0 mm | 6.26 m/s, 202° | 460 W/m² | - |
* Rain latest hour (hover to see other rain measurements)
** Current wind speed in m/s (hover to see current wind gust speed)